createdAt,value
2018-08-06T00:01:20.654Z,75.50
2018-08-06T00:03:53.686Z,75.80
2018-08-06T00:06:26.705Z,75.70
2018-08-06T00:08:59.749Z,75.60
2018-08-06T00:11:32.712Z,75.60
2018-08-06T00:14:05.658Z,75.50
2018-08-06T00:16:38.741Z,75.70
2018-08-06T00:19:11.780Z,76.10
2018-08-06T00:21:44.766Z,76.00
2018-08-06T00:24:17.773Z,76.00
2018-08-06T00:26:50.842Z,75.70
2018-08-06T00:29:23.797Z,76.60
2018-08-06T00:31:56.757Z,76.00
2018-08-06T00:34:29.876Z,76.20
2018-08-06T00:37:02.851Z,76.20
2018-08-06T00:39:35.853Z,76.40
2018-08-06T00:42:08.871Z,76.50
2018-08-06T00:44:41.828Z,76.50
2018-08-06T00:47:15.141Z,76.70
2018-08-06T00:49:48.205Z,76.80
2018-08-06T00:52:21.222Z,76.80
2018-08-06T00:54:54.324Z,76.70
2018-08-06T00:57:27.225Z,76.60
2018-08-06T01:00:00.187Z,76.80
2018-08-06T01:02:33.163Z,76.80
2018-08-06T01:05:06.191Z,76.70
2018-08-06T01:07:39.593Z,76.80
2018-08-06T01:10:14.353Z,77.80
2018-08-06T01:12:47.439Z,77.10
2018-08-06T01:15:21.914Z,77.20
2018-08-06T01:17:54.834Z,77.20
2018-08-06T01:20:27.736Z,77.40
2018-08-06T01:23:00.686Z,77.60
2018-08-06T01:25:33.796Z,77.70
2018-08-06T01:28:06.822Z,77.70
2018-08-06T01:30:39.812Z,77.90
2018-08-06T01:33:12.742Z,77.80
2018-08-06T01:35:46.735Z,77.70
2018-08-06T01:38:19.694Z,77.70
2018-08-06T01:40:53.299Z,77.70
2018-08-06T01:43:26.294Z,77.70
2018-08-06T01:45:59.278Z,77.80
2018-08-06T01:48:32.359Z,78.00
2018-08-06T01:51:05.410Z,78.10
2018-08-06T01:53:38.416Z,78.30
2018-08-06T01:56:11.486Z,78.30
2018-08-06T01:58:44.444Z,78.60
2018-08-06T02:01:17.411Z,78.70
2018-08-06T02:03:50.822Z,78.90
2018-08-06T02:06:23.805Z,78.90
2018-08-06T02:08:56.790Z,78.50
2018-08-06T02:11:29.853Z,78.60
2018-08-06T02:14:02.839Z,78.50
2018-08-06T02:16:36.498Z,78.50
2018-08-06T02:21:41.113Z,78.50
2018-08-06T02:24:15.186Z,78.60
2018-08-06T02:26:48.223Z,78.90
2018-08-06T02:29:22.022Z,78.80
2018-08-06T02:31:55.098Z,79.10
2018-08-06T02:34:28.069Z,78.70
2018-08-06T02:37:00.996Z,79.10
2018-08-06T02:39:34.006Z,79.20
2018-08-06T02:42:07.016Z,79.00
2018-08-06T02:44:39.945Z,79.20
2018-08-06T02:47:13.024Z,79.10
2018-08-06T02:49:45.957Z,79.10
2018-08-06T02:52:18.894Z,79.40
2018-08-06T02:54:52.474Z,79.30
2018-08-06T02:57:25.526Z,79.40
2018-08-06T02:59:59.547Z,79.20
2018-08-06T03:02:32.626Z,79.30
2018-08-06T03:05:05.606Z,78.70
2018-08-06T03:07:38.590Z,75.30
2018-08-06T03:10:11.607Z,72.20
2018-08-06T03:12:45.610Z,69.70
2018-08-06T03:15:18.631Z,67.50
2018-08-06T03:17:56.055Z,65.40
2018-08-06T03:20:29.077Z,65.20
2018-08-06T03:23:03.372Z,65.10
2018-08-06T03:25:36.423Z,65.10
2018-08-06T03:28:09.431Z,65.90
2018-08-06T03:30:43.217Z,65.20
2018-08-06T03:33:16.321Z,66.00
2018-08-06T03:35:49.386Z,66.80
2018-08-06T03:38:22.392Z,67.10
2018-08-06T03:40:55.312Z,67.50
2018-08-06T03:43:28.382Z,67.30
2018-08-06T03:46:01.377Z,67.30
2018-08-06T03:48:34.606Z,67.60
2018-08-06T03:51:07.525Z,68.00
2018-08-06T03:53:40.535Z,68.30
2018-08-06T03:56:13.511Z,69.00
2018-08-06T03:58:46.393Z,69.20
2018-08-06T04:01:19.574Z,69.60
2018-08-06T04:03:52.578Z,69.70
2018-08-06T04:06:25.498Z,69.50
2018-08-06T04:08:58.499Z,69.90
2018-08-06T04:11:31.502Z,70.20
2018-08-06T04:14:04.478Z,70.00
2018-08-06T04:16:45.785Z,70.30
2018-08-06T04:19:18.750Z,70.80
2018-08-06T04:21:52.386Z,71.00
2018-08-06T04:24:25.375Z,71.30
2018-08-06T04:26:59.161Z,71.60
2018-08-06T04:29:32.254Z,71.70
2018-08-06T04:32:05.655Z,71.80
2018-08-06T04:34:38.638Z,71.90
2018-08-06T04:37:11.658Z,71.90
2018-08-06T04:39:44.729Z,72.00
2018-08-06T04:42:17.668Z,71.90
2018-08-06T04:47:22.266Z,72.40
2018-08-06T04:49:55.285Z,72.20
2018-08-06T04:52:29.190Z,72.30
2018-08-06T04:55:02.149Z,72.20
2018-08-06T04:57:35.167Z,72.20
2018-08-06T05:00:10.307Z,72.30
2018-08-06T05:02:43.610Z,72.40
2018-08-06T05:05:16.627Z,72.40
2018-08-06T05:07:49.526Z,72.50
2018-08-06T05:10:22.537Z,72.50
2018-08-06T05:12:55.471Z,72.40
2018-08-06T05:15:28.422Z,72.60
2018-08-06T05:18:02.111Z,72.50
2018-08-06T05:20:35.158Z,72.60
2018-08-06T05:23:08.099Z,72.80
2018-08-06T05:25:41.034Z,72.80
2018-08-06T05:28:15.064Z,72.60
2018-08-06T05:30:48.098Z,72.70
2018-08-06T05:33:21.782Z,72.70
2018-08-06T05:35:55.033Z,72.80
2018-08-06T05:38:27.974Z,72.60
2018-08-06T05:41:00.922Z,72.90
2018-08-06T05:43:33.905Z,72.70
2018-08-06T05:46:07.390Z,72.50
2018-08-06T05:48:40.737Z,72.60
2018-08-06T05:51:13.869Z,72.70
2018-08-06T05:53:46.889Z,73.10
2018-08-06T05:56:19.898Z,72.90
2018-08-06T05:58:52.960Z,72.60
2018-08-06T06:01:26.031Z,73.10
2018-08-06T06:03:59.111Z,73.50
2018-08-06T06:06:32.104Z,73.60
2018-08-06T06:09:05.202Z,73.60
2018-08-06T06:11:38.165Z,73.70
2018-08-06T06:14:11.972Z,73.90
2018-08-06T06:16:45.837Z,73.80
2018-08-06T06:19:18.914Z,73.90
2018-08-06T06:21:51.895Z,73.80
2018-08-06T06:24:25.863Z,73.80
2018-08-06T06:26:59.027Z,73.80
2018-08-06T06:29:32.016Z,73.70
2018-08-06T06:32:04.936Z,73.70
2018-08-06T06:34:38.086Z,73.90
2018-08-06T06:37:11.385Z,73.90
2018-08-06T06:39:44.426Z,73.70
2018-08-06T06:42:17.502Z,73.90
2018-08-06T06:44:50.544Z,73.90
2018-08-06T06:47:23.522Z,74.20
2018-08-06T06:49:57.414Z,73.70
2018-08-06T06:52:30.494Z,74.60
2018-08-06T06:55:03.529Z,73.70
2018-08-06T06:57:36.619Z,73.90
2018-08-06T07:00:11.711Z,73.90
2018-08-06T07:02:44.875Z,73.90
2018-08-06T07:05:17.799Z,73.90
2018-08-06T07:07:51.266Z,73.80
2018-08-06T07:10:24.276Z,74.00
2018-08-06T07:12:57.410Z,74.50
2018-08-06T07:15:32.474Z,73.90
2018-08-06T07:18:05.582Z,73.60
2018-08-06T07:20:38.577Z,73.90
2018-08-06T07:23:11.661Z,73.80
2018-08-06T07:25:44.811Z,73.90
2018-08-06T07:28:17.870Z,73.90
2018-08-06T07:30:50.957Z,74.00
2018-08-06T07:33:23.917Z,74.00
2018-08-06T07:35:56.881Z,73.60
2018-08-06T07:38:29.866Z,73.50
2018-08-06T07:41:03.871Z,73.90
2018-08-06T07:43:36.829Z,73.90
2018-08-06T07:46:09.834Z,74.10
2018-08-06T07:48:43.754Z,74.20
2018-08-06T07:51:17.644Z,74.20
2018-08-06T07:53:50.722Z,74.20
2018-08-06T07:56:23.779Z,74.10
2018-08-06T07:58:56.782Z,74.30
2018-08-06T08:01:29.887Z,74.10
2018-08-06T08:04:02.994Z,74.20
2018-08-06T08:06:35.992Z,74.50
2018-08-06T08:09:12.195Z,74.40
2018-08-06T08:11:45.127Z,74.20
2018-08-06T08:14:18.258Z,74.40
2018-08-06T08:16:51.277Z,74.40
2018-08-06T08:19:24.447Z,74.40
2018-08-06T08:21:57.560Z,74.10
2018-08-06T08:24:30.527Z,73.80
2018-08-06T08:27:04.526Z,73.90
2018-08-06T08:29:37.508Z,73.60
2018-08-06T08:32:10.420Z,74.10
2018-08-06T08:34:43.421Z,74.10
2018-08-06T08:37:16.417Z,74.00
2018-08-06T08:39:49.410Z,74.30
2018-08-06T08:42:22.447Z,74.00
2018-08-06T08:44:55.593Z,74.20
2018-08-06T08:47:28.649Z,74.20
2018-08-06T08:50:01.759Z,74.10
2018-08-06T08:52:34.823Z,74.10
2018-08-06T08:55:08.194Z,74.20
2018-08-06T08:57:41.388Z,74.40
2018-08-06T09:00:19.249Z,74.10
2018-08-06T09:02:53.128Z,74.20
2018-08-06T09:05:26.822Z,74.00
2018-08-06T09:07:59.830Z,74.00
2018-08-06T09:10:32.833Z,74.30
2018-08-06T09:13:05.813Z,74.20
2018-08-06T09:15:39.734Z,74.40
2018-08-06T09:18:12.771Z,74.30
2018-08-06T09:20:45.746Z,74.10
2018-08-06T09:23:18.750Z,74.30
2018-08-06T09:25:51.793Z,74.20
2018-08-06T09:28:24.849Z,74.40
2018-08-06T09:30:59.037Z,74.30
2018-08-06T09:33:32.113Z,74.30
2018-08-06T09:36:05.142Z,74.10
2018-08-06T09:38:38.447Z,74.00
2018-08-06T09:41:11.537Z,74.30
2018-08-06T09:43:45.629Z,74.30
2018-08-06T09:46:18.655Z,74.40
2018-08-06T09:48:51.545Z,74.00
2018-08-06T09:51:24.566Z,73.70
2018-08-06T09:53:58.337Z,73.30
2018-08-06T09:56:31.274Z,74.40
2018-08-06T09:59:04.326Z,74.80
2018-08-06T10:01:41.233Z,74.90
2018-08-06T10:04:14.750Z,74.90
2018-08-06T10:06:47.859Z,75.00
2018-08-06T10:09:20.929Z,74.90
2018-08-06T10:11:53.877Z,75.10
2018-08-06T10:14:26.958Z,75.00
2018-08-06T10:17:00.004Z,74.80
2018-08-06T10:19:33.006Z,74.60
2018-08-06T10:22:06.991Z,74.60
2018-08-06T10:24:40.214Z,74.70
2018-08-06T10:27:13.200Z,75.00
2018-08-06T10:29:46.254Z,74.70
2018-08-06T10:32:19.441Z,74.80
2018-08-06T10:34:52.386Z,74.70
2018-08-06T10:37:25.811Z,74.60
2018-08-06T10:39:58.767Z,75.00
2018-08-06T10:42:31.691Z,74.70
2018-08-06T10:45:04.764Z,75.50
2018-08-06T10:47:37.669Z,74.90
2018-08-06T10:50:11.270Z,74.50
2018-08-06T10:52:44.384Z,74.80
2018-08-06T10:55:17.348Z,74.90
2018-08-06T10:57:50.385Z,74.80
2018-08-06T11:00:25.347Z,74.60
2018-08-06T11:02:58.501Z,74.90
2018-08-06T11:05:32.157Z,74.90
2018-08-06T11:08:05.235Z,75.10
2018-08-06T11:10:38.201Z,74.70
2018-08-06T11:13:11.462Z,75.30
2018-08-06T11:15:44.555Z,74.50
2018-08-06T11:18:17.685Z,74.60
2018-08-06T11:20:50.807Z,74.50
2018-08-06T11:23:23.831Z,74.30
2018-08-06T11:25:56.868Z,74.40
2018-08-06T11:28:29.895Z,74.60
2018-08-06T11:31:03.007Z,74.60
2018-08-06T11:33:36.717Z,74.60
2018-08-06T11:36:09.738Z,74.60
2018-08-06T11:38:42.759Z,74.70
2018-08-06T11:41:16.646Z,74.60
2018-08-06T11:43:49.689Z,74.60
2018-08-06T11:46:22.613Z,74.60
2018-08-06T11:48:55.787Z,74.60
2018-08-06T11:51:28.861Z,74.60
2018-08-06T11:54:01.774Z,74.60
2018-08-06T11:56:34.701Z,74.60
2018-08-06T11:59:07.824Z,74.40
2018-08-06T12:01:40.830Z,74.50
2018-08-06T12:04:14.705Z,74.40
2018-08-06T12:06:47.673Z,74.40
2018-08-06T12:09:20.632Z,74.30
2018-08-06T12:11:53.814Z,74.50
2018-08-06T12:14:26.838Z,74.50
2018-08-06T12:17:00.333Z,74.60
2018-08-06T12:19:33.431Z,74.50
2018-08-06T12:22:06.552Z,74.40
2018-08-06T12:24:39.737Z,74.40
2018-08-06T12:27:12.945Z,74.40
2018-08-06T12:29:46.025Z,74.50
2018-08-06T12:32:19.049Z,74.50
2018-08-06T12:34:52.121Z,74.50
2018-08-06T12:37:25.086Z,74.30
2018-08-06T12:39:58.061Z,74.70
2018-08-06T12:42:31.087Z,74.60
2018-08-06T12:45:04.146Z,74.60
2018-08-06T12:47:37.283Z,74.50
2018-08-06T12:50:11.726Z,74.60
2018-08-06T12:52:45.991Z,74.50
2018-08-06T12:55:19.913Z,74.40
2018-08-06T12:57:52.921Z,74.60
2018-08-06T13:00:27.604Z,74.60
2018-08-06T13:03:00.633Z,74.60
2018-08-06T13:05:33.726Z,74.50
2018-08-06T13:08:06.747Z,74.60
2018-08-06T13:10:39.877Z,74.60
2018-08-06T13:13:12.891Z,74.60
2018-08-06T13:15:46.042Z,74.60
2018-08-06T13:18:19.012Z,74.70
2018-08-06T13:20:53.906Z,74.70
2018-08-06T13:23:28.082Z,74.90
2018-08-06T13:26:01.114Z,74.80
2018-08-06T13:28:34.060Z,74.70
2018-08-06T13:31:07.736Z,74.70
2018-08-06T13:33:40.822Z,74.80
2018-08-06T13:38:46.486Z,74.70
2018-08-06T13:41:19.433Z,75.00
2018-08-06T13:43:52.488Z,74.90
2018-08-06T13:46:25.441Z,75.00
2018-08-06T13:48:58.992Z,75.00
2018-08-06T13:51:32.950Z,75.10
2018-08-06T13:54:06.004Z,76.10
2018-08-06T13:56:38.938Z,75.60
2018-08-06T13:59:12.081Z,75.30
2018-08-06T14:01:45.205Z,75.50
2018-08-06T14:04:18.335Z,75.40
2018-08-06T14:06:51.366Z,75.40
2018-08-06T14:09:24.407Z,75.40
2018-08-06T14:11:58.059Z,75.40
2018-08-06T14:14:31.130Z,75.60
2018-08-06T14:17:04.238Z,75.50
2018-08-06T14:19:38.109Z,75.60
2018-08-06T14:22:11.093Z,75.60
2018-08-06T14:24:44.161Z,75.50
2018-08-06T14:27:17.289Z,75.60
2018-08-06T14:29:50.210Z,75.60
2018-08-06T14:32:23.283Z,75.60
2018-08-06T14:34:56.293Z,75.70
2018-08-06T14:37:29.379Z,75.60
2018-08-06T14:40:02.284Z,75.70
2018-08-06T14:42:36.081Z,75.60
2018-08-06T14:45:10.643Z,75.70
2018-08-06T14:47:43.639Z,75.80
2018-08-06T14:50:17.437Z,75.70
2018-08-06T14:52:50.526Z,75.70
2018-08-06T14:55:23.577Z,75.70
2018-08-06T14:57:56.498Z,75.70
2018-08-06T15:00:29.573Z,75.80
2018-08-06T15:03:03.208Z,75.70
2018-08-06T15:05:36.747Z,75.70
2018-08-06T15:08:09.704Z,75.70
2018-08-06T15:10:42.724Z,75.70
2018-08-06T15:13:15.765Z,75.70
2018-08-06T15:15:48.859Z,75.80
2018-08-06T15:18:21.856Z,75.80
2018-08-06T15:20:54.950Z,75.80
2018-08-06T15:23:28.088Z,75.60
2018-08-06T15:26:01.223Z,75.70
2018-08-06T15:28:34.688Z,75.60
2018-08-06T15:31:07.784Z,75.70
2018-08-06T15:33:41.219Z,75.70
2018-08-06T15:36:14.990Z,75.60
2018-08-06T15:38:48.033Z,75.70
2018-08-06T15:41:21.098Z,75.70
2018-08-06T15:43:54.154Z,75.80
2018-08-06T15:46:27.114Z,75.70
2018-08-06T15:49:00.151Z,75.70
2018-08-06T15:51:33.145Z,75.60
2018-08-06T15:54:06.110Z,75.70
2018-08-06T15:56:39.185Z,75.60
2018-08-06T15:59:12.175Z,75.60
2018-08-06T16:01:45.187Z,75.60
2018-08-06T16:04:18.114Z,75.60
2018-08-06T16:06:51.158Z,75.50
2018-08-06T16:09:24.213Z,75.50
2018-08-06T16:11:57.362Z,75.40
2018-08-06T16:14:30.484Z,75.40
2018-08-06T16:17:03.452Z,74.10
2018-08-06T16:19:36.399Z,70.60
2018-08-06T16:22:09.462Z,68.20
2018-08-06T16:24:42.459Z,65.70
2018-08-06T16:27:15.431Z,63.40
2018-08-06T16:29:48.386Z,61.60
2018-08-06T16:32:21.463Z,59.70
2018-08-06T16:34:54.514Z,58.50
2018-08-06T16:37:27.582Z,57.50
2018-08-06T16:40:00.658Z,58.40
2018-08-06T16:42:34.444Z,57.90
2018-08-06T16:45:08.119Z,56.50
2018-08-06T16:47:41.394Z,55.80
2018-08-06T16:50:18.259Z,55.30
2018-08-06T16:52:51.354Z,54.80
2018-08-06T16:55:24.587Z,54.20
2018-08-06T16:57:57.542Z,53.60
2018-08-06T17:00:30.559Z,54.10
2018-08-06T17:03:03.656Z,57.00
2018-08-06T17:05:36.582Z,59.20
2018-08-06T17:08:09.559Z,59.30
2018-08-06T17:10:42.507Z,57.50
2018-08-06T17:13:15.630Z,56.60
2018-08-06T17:15:48.672Z,57.80
2018-08-06T17:18:21.930Z,60.30
2018-08-06T17:20:54.963Z,62.10
2018-08-06T17:23:28.027Z,60.00
2018-08-06T17:26:01.072Z,58.30
2018-08-06T17:28:34.207Z,59.70
2018-08-06T17:31:07.319Z,62.30
2018-08-06T17:33:41.482Z,64.10
2018-08-06T17:36:14.984Z,61.30
2018-08-06T17:38:48.146Z,59.30
2018-08-06T17:41:21.251Z,59.10
2018-08-06T17:43:54.817Z,62.30
2018-08-06T17:46:27.825Z,64.10
2018-08-06T17:49:00.831Z,62.80
2018-08-06T17:51:33.823Z,60.20
2018-08-06T17:54:06.899Z,59.70
2018-08-06T17:56:39.958Z,62.80
2018-08-06T17:59:14.045Z,65.00
2018-08-06T18:01:48.088Z,63.40
2018-08-06T18:04:22.213Z,60.10
2018-08-06T18:06:55.432Z,61.00
2018-08-06T18:09:28.458Z,64.10
2018-08-06T18:12:01.516Z,65.40
2018-08-06T18:14:34.582Z,63.10
2018-08-06T18:17:07.528Z,62.80
2018-08-06T18:19:40.524Z,65.80
2018-08-06T18:22:13.569Z,67.10
2018-08-06T18:24:46.601Z,64.60
2018-08-06T18:27:19.703Z,63.80
2018-08-06T18:29:52.678Z,66.60
2018-08-06T18:32:25.781Z,67.80
2018-08-06T18:34:58.931Z,65.50
2018-08-06T18:37:32.438Z,64.60
2018-08-06T18:40:05.510Z,66.80
2018-08-06T18:42:38.510Z,68.10
2018-08-06T18:45:17.953Z,66.40
2018-08-06T18:47:51.715Z,63.80
2018-08-06T18:50:24.769Z,67.10
2018-08-06T18:52:57.843Z,68.40
2018-08-06T18:55:31.020Z,67.50
2018-08-06T18:58:04.014Z,64.40
2018-08-06T19:00:37.060Z,66.40
2018-08-06T19:03:10.122Z,67.90
2018-08-06T19:05:43.197Z,68.90
2018-08-06T19:08:16.137Z,64.60
2018-08-06T19:10:49.135Z,66.40
2018-08-06T19:13:26.140Z,68.30
2018-08-06T19:15:59.255Z,69.00
2018-08-06T19:19:35.754Z,68.30
2018-08-06T19:22:08.737Z,69.90
2018-08-06T19:24:46.175Z,70.60
2018-08-06T19:27:19.238Z,67.00
2018-08-06T19:29:52.318Z,69.00
2018-08-06T19:32:25.338Z,70.00
2018-08-06T19:34:58.402Z,70.90
2018-08-06T19:37:35.730Z,67.50
2018-08-06T19:40:11.181Z,70.20
2018-08-06T19:42:48.487Z,71.60
2018-08-06T19:45:21.585Z,69.80
2018-08-06T19:47:54.679Z,69.30
2018-08-06T19:50:31.688Z,71.00
2018-08-06T19:53:04.869Z,71.80
2018-08-06T19:55:41.843Z,69.10
2018-08-06T19:58:15.047Z,69.80
2018-08-06T20:00:48.133Z,71.50
2018-08-06T20:03:21.193Z,72.40
2018-08-06T20:05:54.157Z,68.90
2018-08-06T20:08:27.167Z,71.20
2018-08-06T20:11:00.174Z,72.10
2018-08-06T20:13:33.150Z,70.70
2018-08-06T20:16:06.162Z,68.40
2018-08-06T20:18:39.130Z,70.90
2018-08-06T20:21:13.950Z,71.90
2018-08-06T20:23:47.007Z,70.00
2018-08-06T20:26:19.981Z,70.80
2018-08-06T20:28:53.105Z,72.00
2018-08-06T20:31:26.202Z,73.20
2018-08-06T20:33:59.326Z,68.70
2018-08-06T20:36:32.384Z,70.70
2018-08-06T20:39:06.169Z,71.90
2018-08-06T20:41:39.241Z,72.40
2018-08-06T20:44:13.228Z,69.00
2018-08-06T20:46:46.186Z,71.40
2018-08-06T20:49:19.251Z,72.30
2018-08-06T20:51:52.295Z,70.70
2018-08-06T20:54:25.503Z,70.70
2018-08-06T20:56:58.559Z,72.60
2018-08-06T20:59:31.646Z,73.00
2018-08-06T21:02:04.634Z,69.20
2018-08-06T21:04:37.700Z,71.70
2018-08-06T21:07:10.790Z,72.50
2018-08-06T21:09:43.694Z,72.60
2018-08-06T21:12:16.626Z,70.30
2018-08-06T21:14:49.799Z,72.20
2018-08-06T21:17:23.784Z,73.00
2018-08-06T21:19:56.897Z,71.00
2018-08-06T21:22:30.003Z,70.50
2018-08-06T21:25:03.021Z,72.50
2018-08-06T21:27:36.073Z,73.20
2018-08-06T21:30:12.253Z,69.60
2018-08-06T21:32:49.191Z,72.00
2018-08-06T21:35:24.370Z,72.80
2018-08-06T21:37:57.874Z,72.60
2018-08-06T21:40:30.949Z,70.10
2018-08-06T21:43:03.942Z,72.50
2018-08-06T21:45:36.992Z,73.50
2018-08-06T21:48:10.046Z,71.80
2018-08-06T21:50:43.031Z,71.90
2018-08-06T21:53:16.107Z,73.10
2018-08-06T21:55:49.150Z,73.60
2018-08-06T21:58:22.161Z,70.10
2018-08-06T22:00:55.213Z,72.40
2018-08-06T22:03:28.357Z,73.20
2018-08-06T22:06:01.402Z,72.60
2018-08-06T22:08:34.439Z,71.80
2018-08-06T22:11:07.883Z,73.20
2018-08-06T22:13:40.882Z,74.80
2018-08-06T22:16:15.923Z,70.50
2018-08-06T22:18:48.909Z,72.60
2018-08-06T22:21:22.924Z,73.60
2018-08-06T22:23:55.986Z,74.20
2018-08-06T22:26:28.917Z,71.90
2018-08-06T22:29:01.932Z,73.60
2018-08-06T22:31:34.954Z,74.40
2018-08-06T22:34:08.032Z,73.50
2018-08-06T22:36:42.203Z,74.80
2018-08-06T22:39:15.311Z,75.30
2018-08-06T22:41:48.402Z,72.60
2018-08-06T22:44:22.256Z,72.70
2018-08-06T22:46:55.225Z,74.20
2018-08-06T22:49:28.275Z,75.10
2018-08-06T22:52:01.275Z,71.70
2018-08-06T22:54:34.358Z,74.20
2018-08-06T22:57:08.551Z,75.20
2018-08-06T22:59:41.607Z,73.50
2018-08-06T23:02:15.137Z,72.40
2018-08-06T23:04:48.119Z,72.70
2018-08-06T23:07:21.838Z,72.40
2018-08-06T23:09:54.735Z,72.40
2018-08-06T23:12:27.814Z,72.30
2018-08-06T23:15:00.831Z,72.30
2018-08-06T23:17:33.698Z,72.30
2018-08-06T23:20:07.538Z,72.40
2018-08-06T23:22:40.858Z,72.10
2018-08-06T23:27:46.400Z,72.10
2018-08-06T23:30:19.488Z,72.10
2018-08-06T23:32:52.551Z,72.20
2018-08-06T23:35:25.594Z,72.40
2018-08-06T23:37:58.727Z,72.50
2018-08-06T23:40:31.761Z,72.50
2018-08-06T23:43:04.709Z,72.60
2018-08-06T23:45:37.765Z,72.80
2018-08-06T23:48:10.748Z,72.80
2018-08-06T23:50:43.636Z,72.90
2018-08-06T23:53:16.657Z,73.10
2018-08-06T23:55:49.664Z,73.10
2018-08-06T23:58:23.110Z,73.00
